Time;durP1;ratioP1;P1;durP2;ratioP2;P2;SDS_P1;SDS_P2;PMS_P1;PMS_P2;Temp;Humidity;BMP_temperature;BMP_pressure;BME280_temperature;BME280_humidity;BME280_pressure;Samples;Min_cycle;Max_cycle;Signal;HPM_P1;HPM_P2
2021/06/11 00:02:24;;;;;;;10.87;9.77;;;;;;;;;;5055252;28;20168;-88
2021/06/11 00:04:49;;;;;;;12.63;9.57;;;;;;;;;;5055121;28;20540;-87
2021/06/11 00:07:14;;;;;;;10.37;8.63;;;;;;;;;;5055213;28;20563;-87
2021/06/11 00:09:40;;;;;;;8.50;7.80;;;;;;;;;;5054605;28;20168;-87
2021/06/11 00:12:05;;;;;;;12.10;8.90;;;;;;;;;;5054991;28;20246;-87
2021/06/11 00:14:31;;;;;;;10.77;8.97;;;;;;;;;;5055301;28;20180;-87
2021/06/11 00:16:56;;;;;;;9.47;8.47;;;;;;;;;;5055269;28;20661;-87
2021/06/11 00:19:21;;;;;;;9.83;8.83;;;;;;;;;;5054875;28;20171;-87
2021/06/11 00:21:47;;;;;;;9.70;8.80;;;;;;;;;;5054836;28;20265;-87
2021/06/11 00:24:12;;;;;;;11.03;9.00;;;;;;;;;;5054735;28;20662;-87
2021/06/11 00:26:37;;;;;;;10.27;8.37;;;;;;;;;;5037492;28;20176;-87
2021/06/11 00:29:02;;;;;;;11.83;8.60;;;;;;;;;;5054488;28;20598;-87
2021/06/11 00:31:28;;;;;;;10.50;8.37;;;;;;;;;;5054698;28;20172;-87
2021/06/11 00:33:53;;;;;;;12.53;8.37;;;;;;;;;;5054404;28;20696;-87
2021/06/11 00:36:18;;;;;;;9.57;8.60;;;;;;;;;;5054838;28;20192;-87
2021/06/11 00:38:44;;;;;;;9.37;8.37;;;;;;;;;;5055033;28;20167;-87
2021/06/11 00:41:09;;;;;;;10.50;8.17;;;;;;;;;;5054232;28;20175;-87
2021/06/11 00:43:34;;;;;;;8.50;7.70;;;;;;;;;;5054711;28;20213;-87
2021/06/11 00:46:00;;;;;;;11.77;8.53;;;;;;;;;;5054407;28;20190;-87
2021/06/11 00:48:25;;;;;;;9.50;7.87;;;;;;;;;;5054083;28;20175;-87
2021/06/11 00:50:50;;;;;;;9.83;8.83;;;;;;;;;;5054284;28;20179;-87
2021/06/11 00:53:16;;;;;;;10.07;8.07;;;;;;;;;;5053946;28;20523;-86
2021/06/11 00:55:45;;;;;;;12.00;8.40;;;;;;;;;;5054105;28;20176;-86
2021/06/11 00:58:15;;;;;;;9.57;8.50;;;;;;;;;;5054240;28;20306;-86
2021/06/11 01:00:41;;;;;;;10.60;8.30;;;;;;;;;;5053926;28;20172;-87
2021/06/11 01:03:06;;;;;;;9.63;8.70;;;;;;;;;;5053854;28;20179;-88
2021/06/11 01:05:32;;;;;;;9.93;8.93;;;;;;;;;;5053986;28;20221;-88
2021/06/11 01:07:57;;;;;;;10.03;9.13;;;;;;;;;;5054066;28;20172;-87
2021/06/11 01:10:23;;;;;;;10.57;9.00;;;;;;;;;;5053703;28;20615;-87
2021/06/11 01:12:50;;;;;;;10.63;9.17;;;;;;;;;;5054488;28;20165;-87
2021/06/11 01:15:17;;;;;;;10.57;9.47;;;;;;;;;;5053947;28;20172;-88
2021/06/11 01:17:42;;;;;;;10.40;9.30;;;;;;;;;;5054548;28;20175;-88
2021/06/11 01:20:09;;;;;;;10.57;9.57;;;;;;;;;;5053596;28;20175;-88
2021/06/11 01:22:53;;;;;;;10.63;9.50;;;;;;;;;;5054147;28;20619;-88
2021/06/11 01:25:26;;;;;;;10.10;9.03;;;;;;;;;;5053784;28;20229;-88
2021/06/11 01:27:51;;;;;;;12.03;9.57;;;;;;;;;;5035912;28;20184;-88
2021/06/11 01:30:21;;;;;;;10.60;9.60;;;;;;;;;;5036452;28;20172;-88
2021/06/11 01:32:47;;;;;;;10.67;9.57;;;;;;;;;;5054041;28;20287;-88
2021/06/11 01:35:14;;;;;;;12.37;9.93;;;;;;;;;;5035881;28;20207;-88
2021/06/11 01:37:41;;;;;;;11.10;10.00;;;;;;;;;;5053737;28;20263;-88
2021/06/11 01:40:07;;;;;;;10.57;9.60;;;;;;;;;;5053436;28;20172;-88
2021/06/11 01:42:35;;;;;;;12.10;10.20;;;;;;;;;;5053908;28;20290;-88
2021/06/11 01:45:06;;;;;;;10.67;9.60;;;;;;;;;;5057230;28;20204;-87
2021/06/11 01:47:32;;;;;;;11.57;10.48;;;;;;;;;;5057108;28;20366;-87
2021/06/11 01:49:57;;;;;;;11.40;10.20;;;;;;;;;;5057712;28;20164;-85
2021/06/11 01:52:24;;;;;;;11.10;9.93;;;;;;;;;;5057461;28;20164;-83
2021/06/11 01:54:50;;;;;;;11.47;9.87;;;;;;;;;;5057766;28;20523;-85
2021/06/11 01:57:15;;;;;;;11.20;10.10;;;;;;;;;;5057504;28;20192;-85
2021/06/11 01:59:42;;;;;;;11.20;9.90;;;;;;;;;;5057557;28;20314;-85
2021/06/11 02:02:07;;;;;;;11.70;10.37;;;;;;;;;;5057796;28;20188;-85
2021/06/11 02:04:33;;;;;;;10.40;9.50;;;;;;;;;;5057424;28;20235;-85
2021/06/11 02:06:58;;;;;;;12.17;10.40;;;;;;;;;;5057764;28;20167;-85
2021/06/11 02:09:24;;;;;;;10.80;9.80;;;;;;;;;;5057588;28;20160;-86
2021/06/11 02:11:49;;;;;;;11.80;10.60;;;;;;;;;;5057373;28;20732;-86
2021/06/11 02:14:15;;;;;;;12.13;10.83;;;;;;;;;;5057564;28;20225;-87
2021/06/11 02:16:42;;;;;;;11.67;10.57;;;;;;;;;;5056972;28;20252;-86
2021/06/11 02:19:07;;;;;;;11.93;10.83;;;;;;;;;;5057208;28;20168;-86
2021/06/11 02:21:33;;;;;;;13.47;11.23;;;;;;;;;;5057960;28;20175;-86
2021/06/11 02:23:58;;;;;;;11.60;10.40;;;;;;;;;;5057266;28;20199;-86
2021/06/11 02:26:25;;;;;;;12.23;10.60;;;;;;;;;;5057318;28;20203;-86
2021/06/11 02:28:51;;;;;;;11.40;10.20;;;;;;;;;;5057859;28;20259;-86
2021/06/11 02:31:16;;;;;;;12.60;11.20;;;;;;;;;;5056908;28;20635;-85
2021/06/11 02:33:42;;;;;;;12.83;11.50;;;;;;;;;;5057586;28;20172;-85
2021/06/11 02:36:07;;;;;;;13.33;11.17;;;;;;;;;;5056901;28;20200;-85
2021/06/11 02:38:32;;;;;;;11.63;10.50;;;;;;;;;;5056547;28;20506;-85
2021/06/11 02:40:58;;;;;;;12.90;11.30;;;;;;;;;;5056884;28;20206;-85
2021/06/11 02:43:24;;;;;;;11.93;10.83;;;;;;;;;;5056932;28;20603;-85
2021/06/11 02:45:59;;;;;;;13.07;11.13;;;;;;;;;;5056411;28;20180;-86
2021/06/11 02:48:33;;;;;;;11.97;10.80;;;;;;;;;;5056339;28;20175;-85
2021/06/11 02:51:04;;;;;;;13.43;11.27;;;;;;;;;;5057151;28;20176;-85
2021/06/11 02:53:30;;;;;;;12.27;11.00;;;;;;;;;;5057374;28;20226;-85
2021/06/11 02:55:57;;;;;;;13.17;11.83;;;;;;;;;;5056974;28;20168;-85
2021/06/11 02:58:25;;;;;;;12.37;11.20;;;;;;;;;;5056686;28;20176;-85
2021/06/11 03:00:52;;;;;;;12.23;10.97;;;;;;;;;;5056294;28;20175;-86
2021/06/11 03:03:27;;;;;;;13.00;11.70;;;;;;;;;;5056294;28;20615;-86
2021/06/11 03:05:54;;;;;;;12.57;11.37;;;;;;;;;;5056888;28;20176;-85
2021/06/11 03:08:23;;;;;;;12.30;11.00;;;;;;;;;;5056362;28;20179;-86
2021/06/11 03:10:50;;;;;;;13.43;11.43;;;;;;;;;;5056008;28;20219;-87
2021/06/11 03:13:17;;;;;;;12.50;11.30;;;;;;;;;;5056564;28;20210;-87
2021/06/11 03:15:43;;;;;;;13.10;11.10;;;;;;;;;;5056153;28;20308;-87
2021/06/11 03:18:15;;;;;;;12.43;11.10;;;;;;;;;;5056324;28;20200;-87
2021/06/11 03:20:41;;;;;;;11.60;10.60;;;;;;;;;;5056378;28;20249;-87
2021/06/11 03:23:15;;;;;;;12.00;10.30;;;;;;;;;;5055684;28;20169;-87
2021/06/11 03:25:43;;;;;;;11.83;10.73;;;;;;;;;;5055973;28;20164;-87
2021/06/11 03:28:11;;;;;;;12.20;11.10;;;;;;;;;;5056586;28;20168;-87
2021/06/11 03:30:37;;;;;;;11.90;10.80;;;;;;;;;;5056219;28;20230;-87
2021/06/11 03:33:07;;;;;;;11.23;10.13;;;;;;;;;;5055508;28;20168;-87
2021/06/11 03:35:35;;;;;;;13.00;11.70;;;;;;;;;;5055806;28;20175;-87
2021/06/11 03:38:01;;;;;;;11.73;10.63;;;;;;;;;;5056300;28;20168;-87
2021/06/11 03:40:30;;;;;;;11.87;10.77;;;;;;;;;;5055993;28;20168;-87
2021/06/11 03:42:56;;;;;;;12.60;11.30;;;;;;;;;;5038278;28;20171;-87
2021/06/11 03:45:22;;;;;;;11.93;10.83;;;;;;;;;;5055296;28;20687;-88
2021/06/11 03:47:48;;;;;;;11.97;10.90;;;;;;;;;;5055616;28;20168;-88
2021/06/11 03:50:17;;;;;;;11.60;10.27;;;;;;;;;;5055773;28;20190;-88
2021/06/11 03:52:42;;;;;;;10.87;9.97;;;;;;;;;;5055308;28;20174;-88
2021/06/11 03:55:17;;;;;;;11.27;10.17;;;;;;;;;;5055706;28;20251;-88
2021/06/11 03:57:46;;;;;;;10.47;9.47;;;;;;;;;;5055628;28;20193;-88
2021/06/11 04:00:11;;;;;;;10.47;9.47;;;;;;;;;;5037315;28;20657;-87
2021/06/11 04:02:37;;;;;;;10.30;9.30;;;;;;;;;;5055558;28;20159;-87
2021/06/11 04:05:02;;;;;;;10.23;9.23;;;;;;;;;;5055549;28;20755;-87
2021/06/11 04:07:31;;;;;;;9.88;9.07;;;;;;;;;;5054907;28;20164;-87
2021/06/11 04:10:05;;;;;;;8.90;8.18;;;;;;;;;;5055135;28;20214;-87
2021/06/11 04:12:35;;;;;;;8.75;7.85;;;;;;;;;;5055547;28;20219;-89
2021/06/11 04:15:01;;;;;;;8.32;7.63;;;;;;;;;;5055270;28;20156;-88
2021/06/11 04:17:28;;;;;;;8.07;7.43;;;;;;;;;;5054780;28;20673;-87
2021/06/11 04:19:56;;;;;;;8.50;7.65;;;;;;;;;;5054662;28;20600;-88
2021/06/11 04:22:33;;;;;;;7.68;6.88;;;;;;;;;;5054586;28;20194;-88
2021/06/11 04:24:59;;;;;;;7.38;6.65;;;;;;;;;;5054796;28;20230;-88
2021/06/11 04:27:24;;;;;;;7.30;6.70;;;;;;;;;;5054819;28;20551;-87
2021/06/11 04:29:50;;;;;;;7.20;6.50;;;;;;;;;;5054737;28;20168;-87
2021/06/11 04:32:16;;;;;;;6.90;6.22;;;;;;;;;;5054691;28;20278;-87
2021/06/11 04:34:41;;;;;;;6.65;6.07;;;;;;;;;;5054647;28;20179;-87
2021/06/11 04:37:06;;;;;;;7.32;6.40;;;;;;;;;;5054629;28;20232;-88
2021/06/11 04:39:32;;;;;;;6.00;5.50;;;;;;;;;;5054409;28;20614;-87
2021/06/11 04:41:57;;;;;;;5.82;5.40;;;;;;;;;;5055261;28;20226;-87
2021/06/11 04:44:23;;;;;;;5.93;5.38;;;;;;;;;;5054066;28;20192;-87
2021/06/11 04:46:48;;;;;;;6.90;5.90;;;;;;;;;;5054361;28;20180;-88
2021/06/11 04:49:13;;;;;;;5.93;5.40;;;;;;;;;;5054444;28;20258;-88
2021/06/11 04:51:39;;;;;;;6.70;5.38;;;;;;;;;;5054371;28;20168;-88
2021/06/11 04:54:04;;;;;;;5.70;5.25;;;;;;;;;;5036310;28;20171;-87
2021/06/11 04:56:30;;;;;;;5.28;4.82;;;;;;;;;;5054143;28;20194;-87
2021/06/11 04:58:55;;;;;;;4.93;4.63;;;;;;;;;;5054307;28;20167;-87
2021/06/11 05:01:21;;;;;;;5.47;4.97;;;;;;;;;;5054215;28;20403;-87
2021/06/11 05:03:46;;;;;;;5.50;4.85;;;;;;;;;;5054480;28;20167;-88
2021/06/11 05:06:12;;;;;;;4.75;4.45;;;;;;;;;;5054479;28;20572;-88
2021/06/11 05:08:37;;;;;;;4.78;4.38;;;;;;;;;;5054430;28;20171;-89
2021/06/11 05:11:03;;;;;;;5.68;4.90;;;;;;;;;;5054042;28;20250;-89
2021/06/11 05:13:29;;;;;;;5.18;4.80;;;;;;;;;;5054264;28;20171;-89
2021/06/11 05:15:54;;;;;;;5.15;4.70;;;;;;;;;;5054566;28;20171;-89
2021/06/11 05:18:19;;;;;;;5.13;4.63;;;;;;;;;;5052956;28;20249;-89
2021/06/11 05:20:44;;;;;;;5.55;5.13;;;;;;;;;;5036123;28;20174;-89
2021/06/11 05:23:10;;;;;;;5.20;4.80;;;;;;;;;;5053653;28;20167;-88
2021/06/11 05:25:36;;;;;;;5.72;5.20;;;;;;;;;;5053889;28;20183;-87
2021/06/11 05:28:01;;;;;;;5.40;5.00;;;;;;;;;;5053634;28;20167;-88
2021/06/11 05:30:27;;;;;;;5.72;5.35;;;;;;;;;;5035917;28;20171;-88
2021/06/11 05:32:53;;;;;;;5.70;5.30;;;;;;;;;;5053665;28;20171;-89
2021/06/11 05:35:18;;;;;;;5.53;5.10;;;;;;;;;;5054043;28;20198;-89
2021/06/11 05:37:44;;;;;;;5.80;5.25;;;;;;;;;;5053891;28;20224;-89
2021/06/11 05:40:09;;;;;;;5.65;5.25;;;;;;;;;;5035836;28;20171;-89
2021/06/11 05:42:34;;;;;;;5.70;5.13;;;;;;;;;;5054233;28;20488;-90
2021/06/11 05:45:00;;;;;;;5.50;5.10;;;;;;;;;;5053702;28;20179;-90
2021/06/11 05:47:25;;;;;;;5.20;4.78;;;;;;;;;;5053957;28;20171;-91
2021/06/11 05:49:51;;;;;;;5.53;5.13;;;;;;;;;;5054004;28;20251;-90
2021/06/11 05:52:17;;;;;;;6.18;5.07;;;;;;;;;;5053597;28;20513;-90
2021/06/11 05:54:42;;;;;;;5.47;5.07;;;;;;;;;;5053283;28;20195;-90
2021/06/11 05:57:07;;;;;;;5.00;4.70;;;;;;;;;;5053525;28;20193;-88
2021/06/11 05:59:33;;;;;;;5.25;4.85;;;;;;;;;;5054178;28;20663;-87
2021/06/11 06:01:58;;;;;;;5.60;5.18;;;;;;;;;;5053555;28;20172;-89
2021/06/11 06:04:23;;;;;;;5.07;4.78;;;;;;;;;;5053814;28;20531;-89
2021/06/11 06:06:49;;;;;;;5.75;5.25;;;;;;;;;;5053831;28;20170;-88
2021/06/11 06:09:14;;;;;;;5.50;5.00;;;;;;;;;;5053531;28;20590;-88
2021/06/11 06:11:39;;;;;;;5.38;4.97;;;;;;;;;;5052890;28;20225;-88
2021/06/11 06:14:05;;;;;;;5.70;5.20;;;;;;;;;;5053482;28;20641;-89
2021/06/11 06:16:30;;;;;;;5.45;4.90;;;;;;;;;;5053365;28;20526;-89
2021/06/11 06:18:56;;;;;;;5.30;4.90;;;;;;;;;;5052833;28;20182;-89
2021/06/11 06:21:21;;;;;;;4.95;4.55;;;;;;;;;;5053832;28;20182;-89
2021/06/11 06:23:46;;;;;;;5.65;4.78;;;;;;;;;;5053118;28;20614;-88
2021/06/11 06:26:12;;;;;;;5.28;4.88;;;;;;;;;;5053090;28;20171;-90
2021/06/11 06:28:37;;;;;;;5.53;5.20;;;;;;;;;;5053060;28;20202;-91
2021/06/11 06:31:02;;;;;;;7.15;4.95;;;;;;;;;;5056309;28;20190;-91
2021/06/11 06:33:28;;;;;;;5.28;4.90;;;;;;;;;;5055780;28;20687;-91
2021/06/11 06:35:53;;;;;;;5.15;4.72;;;;;;;;;;5056966;28;20171;-91
2021/06/11 06:38:18;;;;;;;5.80;5.20;;;;;;;;;;5056927;28;20552;-92
2021/06/11 06:40:46;;;;;;;5.28;4.88;;;;;;;;;;5038740;28;20525;-91
2021/06/11 06:43:12;;;;;;;5.57;4.60;;;;;;;;;;5057483;28;20210;-91
2021/06/11 06:45:38;;;;;;;5.85;5.28;;;;;;;;;;5038649;28;20210;-90
2021/06/11 06:48:03;;;;;;;5.25;4.85;;;;;;;;;;5056735;28;20218;-89
2021/06/11 06:50:29;;;;;;;5.40;4.90;;;;;;;;;;5056727;28;20167;-89
2021/06/11 06:52:55;;;;;;;5.32;4.93;;;;;;;;;;5056625;28;20656;-88
2021/06/11 06:55:21;;;;;;;5.43;5.00;;;;;;;;;;5056846;28;20660;-89
2021/06/11 06:57:46;;;;;;;5.72;4.75;;;;;;;;;;5056367;28;20191;-90
2021/06/11 07:00:11;;;;;;;5.43;4.80;;;;;;;;;;5056152;28;20174;-91
2021/06/11 07:02:37;;;;;;;4.90;4.40;;;;;;;;;;5056356;28;20632;-90
2021/06/11 07:05:03;;;;;;;4.57;4.28;;;;;;;;;;5056168;28;20179;-90
2021/06/11 07:07:28;;;;;;;4.95;4.43;;;;;;;;;;5055942;28;20199;-89
2021/06/11 07:09:54;;;;;;;4.68;4.13;;;;;;;;;;5056675;28;20252;-89
2021/06/11 07:12:19;;;;;;;5.05;4.53;;;;;;;;;;5057525;28;20222;-88
2021/06/11 07:14:44;;;;;;;7.43;4.43;;;;;;;;;;5055879;28;20198;-89
2021/06/11 07:17:09;;;;;;;4.63;4.25;;;;;;;;;;5056515;28;20179;-88
2021/06/11 07:19:35;;;;;;;5.22;4.72;;;;;;;;;;5055907;28;20641;-89
2021/06/11 07:22:05;;;;;;;5.03;4.53;;;;;;;;;;5060101;28;20206;-89
2021/06/11 07:24:32;;;;;;;4.55;4.22;;;;;;;;;;5056726;28;20186;-88
2021/06/11 07:26:59;;;;;;;5.22;4.25;;;;;;;;;;5056306;28;20210;-88
2021/06/11 07:29:25;;;;;;;4.60;4.30;;;;;;;;;;5055983;28;20167;-88
2021/06/11 07:31:50;;;;;;;5.07;4.68;;;;;;;;;;5055979;28;20245;-88
2021/06/11 07:34:15;;;;;;;5.50;4.72;;;;;;;;;;5055613;28;20586;-88
2021/06/11 07:36:41;;;;;;;7.25;4.30;;;;;;;;;;5055540;28;20210;-88
2021/06/11 07:39:06;;;;;;;5.25;4.30;;;;;;;;;;5055814;28;20200;-88
2021/06/11 07:41:31;;;;;;;4.75;3.75;;;;;;;;;;5054390;28;20179;-90
2021/06/11 07:43:57;;;;;;;3.85;3.55;;;;;;;;;;5047908;28;20236;-89
2021/06/11 07:46:22;;;;;;;4.38;3.55;;;;;;;;;;5055252;28;20171;-90
2021/06/11 07:48:49;;;;;;;4.15;3.85;;;;;;;;;;5060707;28;20181;-90
2021/06/11 07:51:14;;;;;;;4.00;3.78;;;;;;;;;;5050915;28;20646;-89
2021/06/11 07:53:41;;;;;;;4.85;3.90;;;;;;;;;;5060973;28;20174;-85
2021/06/11 07:56:06;;;;;;;4.40;4.00;;;;;;;;;;5055825;28;20172;-90
2021/06/11 07:58:32;;;;;;;4.25;3.85;;;;;;;;;;5054218;28;20259;-89
2021/06/11 08:00:57;;;;;;;5.38;3.78;;;;;;;;;;5054953;28;20175;-90
2021/06/11 08:03:22;;;;;;;6.53;3.95;;;;;;;;;;5054075;28;20172;-89
2021/06/11 08:05:48;;;;;;;4.30;4.00;;;;;;;;;;5054956;28;20172;-88
2021/06/11 08:08:13;;;;;;;4.50;4.20;;;;;;;;;;5054258;28;20642;-88
2021/06/11 08:10:38;;;;;;;4.68;4.28;;;;;;;;;;5054835;28;20285;-88
2021/06/11 08:13:04;;;;;;;4.85;4.20;;;;;;;;;;5053772;28;20211;-87
2021/06/11 08:15:30;;;;;;;6.35;4.13;;;;;;;;;;5055168;28;20192;-87
2021/06/11 08:17:55;;;;;;;4.60;4.30;;;;;;;;;;5054496;28;20207;-89
2021/06/11 08:20:20;;;;;;;4.28;3.88;;;;;;;;;;5054705;28;20171;-88
2021/06/11 08:22:46;;;;;;;4.35;3.88;;;;;;;;;;5055122;28;20168;-89
2021/06/11 08:25:11;;;;;;;4.40;4.10;;;;;;;;;;5036704;28;20183;-88
2021/06/11 08:27:37;;;;;;;4.80;4.30;;;;;;;;;;5054698;28;20164;-88
2021/06/11 08:30:04;;;;;;;4.90;4.50;;;;;;;;;;5053496;28;20168;-88
2021/06/11 08:32:30;;;;;;;4.45;4.15;;;;;;;;;;5054790;28;20618;-92
2021/06/11 08:34:55;;;;;;;5.20;4.70;;;;;;;;;;5053457;28;20291;-91
2021/06/11 08:37:21;;;;;;;5.22;4.82;;;;;;;;;;5036142;28;20270;-89
2021/06/11 08:39:52;;;;;;;4.88;4.47;;;;;;;;;;5053350;28;20179;-88
2021/06/11 08:42:24;;;;;;;5.05;4.55;;;;;;;;;;5054807;28;20156;-88
2021/06/11 08:44:50;;;;;;;4.40;4.10;;;;;;;;;;5054570;28;20260;-89
2021/06/11 08:47:15;;;;;;;4.47;4.07;;;;;;;;;;5054613;28;20199;-89
2021/06/11 08:49:42;;;;;;;4.35;4.05;;;;;;;;;;5054175;28;20186;-89
2021/06/11 08:52:07;;;;;;;5.50;5.00;;;;;;;;;;5035781;28;20259;-89
2021/06/11 08:54:33;;;;;;;4.72;4.43;;;;;;;;;;5054180;28;20286;-89
2021/06/11 08:56:58;;;;;;;6.57;4.75;;;;;;;;;;5052585;28;20669;-88
2021/06/11 08:59:23;;;;;;;4.40;4.10;;;;;;;;;;5051345;28;20176;-87
2021/06/11 09:01:49;;;;;;;4.70;4.30;;;;;;;;;;5068127;28;20668;-86
2021/06/11 09:04:15;;;;;;;3.95;3.67;;;;;;;;;;5072018;28;20202;-87
2021/06/11 09:06:40;;;;;;;4.03;3.63;;;;;;;;;;5071490;28;20225;-87
2021/06/11 09:09:06;;;;;;;4.32;3.85;;;;;;;;;;5071949;28;20167;-87
2021/06/11 09:11:36;;;;;;;4.78;4.20;;;;;;;;;;5071652;28;20720;-86
2021/06/11 09:14:12;;;;;;;6.60;4.72;;;;;;;;;;5072201;28;20197;-87
2021/06/11 09:16:44;;;;;;;5.45;4.80;;;;;;;;;;5061041;28;20176;-89
2021/06/11 09:19:18;;;;;;;5.10;4.30;;;;;;;;;;5052804;28;20179;-87
2021/06/11 09:21:44;;;;;;;6.05;4.53;;;;;;;;;;5053315;28;20156;-88
2021/06/11 09:24:27;;;;;;;5.15;4.00;;;;;;;;;;5054190;28;20167;-87
2021/06/11 09:27:03;;;;;;;4.30;3.97;;;;;;;;;;5053573;28;20160;-87
2021/06/11 09:29:31;;;;;;;4.30;4.00;;;;;;;;;;5053843;28;20175;-88
2021/06/11 09:32:15;;;;;;;4.55;4.15;;;;;;;;;;5053753;28;20172;-88
2021/06/11 09:34:41;;;;;;;4.65;4.20;;;;;;;;;;5053770;28;20248;-89
2021/06/11 09:37:08;;;;;;;4.25;3.95;;;;;;;;;;5053719;28;20175;-86
2021/06/11 09:39:39;;;;;;;4.65;4.03;;;;;;;;;;5053649;28;20171;-86
2021/06/11 09:42:05;;;;;;;4.43;4.03;;;;;;;;;;5053675;28;20168;-87
2021/06/11 09:44:30;;;;;;;4.38;3.97;;;;;;;;;;5053047;28;20519;-87
2021/06/11 09:46:56;;;;;;;4.50;4.10;;;;;;;;;;5053271;28;20168;-87
2021/06/11 09:49:25;;;;;;;4.45;4.15;;;;;;;;;;5053391;28;20622;-87
2021/06/11 09:52:04;;;;;;;4.75;4.03;;;;;;;;;;5034094;28;20598;-87
2021/06/11 09:54:29;;;;;;;5.75;4.15;;;;;;;;;;5051225;28;20650;-85
2021/06/11 09:56:54;;;;;;;4.97;4.10;;;;;;;;;;5051629;28;20282;-86
2021/06/11 09:59:49;;;;;;;4.78;4.45;;;;;;;;;;5058814;28;20187;-86
2021/06/11 10:02:16;;;;;;;4.35;3.92;;;;;;;;;;5063793;28;20202;-86
2021/06/11 10:04:42;;;;;;;4.43;4.03;;;;;;;;;;5077834;28;20168;-85
2021/06/11 10:07:09;;;;;;;6.53;4.20;;;;;;;;;;5078527;28;20179;-86
2021/06/11 10:09:34;;;;;;;4.45;4.15;;;;;;;;;;5078596;28;20184;-86
2021/06/11 10:12:00;;;;;;;5.20;4.10;;;;;;;;;;5074884;28;20224;-86
2021/06/11 10:14:25;;;;;;;5.68;4.22;;;;;;;;;;5058274;28;20191;-86
2021/06/11 10:16:50;;;;;;;4.97;4.40;;;;;;;;;;5056176;28;20179;-86
2021/06/11 10:19:16;;;;;;;4.68;4.38;;;;;;;;;;5039446;28;20630;-87
2021/06/11 10:21:42;;;;;;;5.60;5.10;;;;;;;;;;5057217;28;20176;-86
2021/06/11 10:24:08;;;;;;;5.32;4.80;;;;;;;;;;5057087;28;20207;-86
2021/06/11 10:26:34;;;;;;;6.00;4.90;;;;;;;;;;5068574;28;20183;-87
2021/06/11 10:28:59;;;;;;;6.05;4.70;;;;;;;;;;5057352;28;20187;-86
2021/06/11 10:31:25;;;;;;;4.60;4.30;;;;;;;;;;5056754;28;20297;-86
2021/06/11 10:33:51;;;;;;;4.72;4.28;;;;;;;;;;5056952;28;20199;-86
2021/06/11 10:38:54;;;;;;;4.82;3.90;;;;;;;;;;5037435;28;20325;-86
2021/06/11 10:41:19;;;;;;;4.10;3.70;;;;;;;;;;5036755;28;20244;-85
2021/06/11 10:43:45;;;;;;;5.47;3.90;;;;;;;;;;5036893;28;20173;-86
2021/06/11 10:46:36;;;;;;;3.88;3.55;;;;;;;;;;5036699;28;20165;-85
2021/06/11 10:49:01;;;;;;;4.53;4.13;;;;;;;;;;5034598;28;20641;-86
2021/06/11 10:51:33;;;;;;;5.43;4.13;;;;;;;;;;5036480;28;20243;-87
2021/06/11 10:54:16;;;;;;;4.93;4.00;;;;;;;;;;5036748;28;20210;-86
2021/06/11 10:56:57;;;;;;;4.10;3.80;;;;;;;;;;5040176;28;20208;-86
2021/06/11 10:59:43;;;;;;;4.25;3.95;;;;;;;;;;5056007;28;20529;-86
2021/06/11 11:02:09;;;;;;;4.20;3.90;;;;;;;;;;5055922;28;20590;-86
2021/06/11 11:04:35;;;;;;;4.75;3.80;;;;;;;;;;5056457;28;20199;-87
2021/06/11 11:07:19;;;;;;;4.20;3.80;;;;;;;;;;5055651;28;20195;-85
2021/06/11 11:09:51;;;;;;;7.85;3.58;;;;;;;;;;5056295;28;20164;-86
2021/06/11 11:12:17;;;;;;;4.22;3.83;;;;;;;;;;5047426;28;20235;-86
2021/06/11 11:14:43;;;;;;;5.97;3.90;;;;;;;;;;5042631;28;20196;-86
2021/06/11 11:17:09;;;;;;;8.30;5.13;;;;;;;;;;5044932;28;20172;-83
2021/06/11 11:19:44;;;;;;;11.60;5.25;;;;;;;;;;5055063;28;20164;-84
2021/06/11 11:22:21;;;;;;;7.72;5.45;;;;;;;;;;5035750;28;20221;-84
2021/06/11 11:24:46;;;;;;;7.63;5.20;;;;;;;;;;5034804;28;20157;-84
2021/06/11 11:27:11;;;;;;;5.70;5.20;;;;;;;;;;5034908;28;20534;-83
2021/06/11 11:29:37;;;;;;;6.43;4.20;;;;;;;;;;5036431;28;20172;-83
2021/06/11 11:32:02;;;;;;;5.70;4.85;;;;;;;;;;5035645;28;20171;-83
2021/06/11 11:34:27;;;;;;;5.03;4.53;;;;;;;;;;5036038;28;20605;-84
2021/06/11 11:36:53;;;;;;;5.47;4.47;;;;;;;;;;5043794;28;20172;-83
2021/06/11 11:39:18;;;;;;;4.57;4.10;;;;;;;;;;5055707;28;20569;-83
2021/06/11 11:41:44;;;;;;;4.87;4.33;;;;;;;;;;5055960;28;20168;-85
2021/06/11 11:44:10;;;;;;;5.10;4.60;;;;;;;;;;5056059;28;20168;-84
2021/06/11 11:46:35;;;;;;;4.23;3.93;;;;;;;;;;5048471;28;20217;-85
2021/06/11 11:49:00;;;;;;;4.60;4.20;;;;;;;;;;5055418;28;20183;-81
2021/06/11 11:51:26;;;;;;;3.63;3.33;;;;;;;;;;5055838;28;20164;-82
2021/06/11 11:53:51;;;;;;;3.43;3.20;;;;;;;;;;5053603;28;20359;-83
2021/06/11 11:56:16;;;;;;;3.70;3.40;;;;;;;;;;5047924;28;20180;-83
2021/06/11 11:58:41;;;;;;;3.70;3.40;;;;;;;;;;5055078;28;20254;-85
2021/06/11 12:01:07;;;;;;;3.47;3.27;;;;;;;;;;5055162;28;20172;-85
2021/06/11 12:03:32;;;;;;;3.90;3.50;;;;;;;;;;5055217;28;20168;-85
2021/06/11 12:05:57;;;;;;;3.90;3.60;;;;;;;;;;5055518;28;20583;-84
2021/06/11 12:08:22;;;;;;;3.80;3.50;;;;;;;;;;5053287;28;20263;-86
2021/06/11 12:10:48;;;;;;;6.40;3.90;;;;;;;;;;5041592;28;20227;-86
2021/06/11 12:13:13;;;;;;;14.60;4.13;;;;;;;;;;5033446;28;20176;-85
2021/06/11 12:15:39;;;;;;;6.63;4.03;;;;;;;;;;5033071;28;20235;-83
2021/06/11 12:18:04;;;;;;;4.78;3.60;;;;;;;;;;5044681;28;20238;-84
2021/06/11 12:20:32;;;;;;;4.60;3.67;;;;;;;;;;5042209;28;20177;-84
2021/06/11 12:22:58;;;;;;;4.32;3.92;;;;;;;;;;5033147;28;20179;-83
2021/06/11 12:25:23;;;;;;;4.78;3.42;;;;;;;;;;5033333;28;20173;-84
2021/06/11 12:27:48;;;;;;;4.43;3.50;;;;;;;;;;5033365;28;20165;-84
2021/06/11 12:30:15;;;;;;;3.67;3.38;;;;;;;;;;5034623;28;20172;-83
2021/06/11 12:32:40;;;;;;;4.20;3.80;;;;;;;;;;5034319;28;20177;-83
2021/06/11 12:35:06;;;;;;;4.15;3.75;;;;;;;;;;5034299;28;20192;-84
2021/06/11 12:37:31;;;;;;;3.45;3.13;;;;;;;;;;5034867;28;20267;-83
2021/06/11 12:39:56;;;;;;;3.70;3.40;;;;;;;;;;5033391;28;20179;-83
2021/06/11 12:42:26;;;;;;;3.60;3.38;;;;;;;;;;5034463;28;20175;-85
2021/06/11 12:44:51;;;;;;;4.20;3.10;;;;;;;;;;5034548;28;20331;-85
2021/06/11 12:47:17;;;;;;;5.10;3.03;;;;;;;;;;5034464;28;20633;-86
2021/06/11 12:49:42;;;;;;;3.30;3.00;;;;;;;;;;5034613;28;20175;-86
2021/06/11 12:52:08;;;;;;;4.38;2.75;;;;;;;;;;5036367;28;20200;-84
2021/06/11 12:54:33;;;;;;;3.70;2.92;;;;;;;;;;5017169;28;20203;-85
2021/06/11 12:56:59;;;;;;;2.55;2.45;;;;;;;;;;5034428;28;20238;-85
2021/06/11 12:59:24;;;;;;;2.80;2.60;;;;;;;;;;5034359;28;20169;-86
2021/06/11 13:01:49;;;;;;;3.75;3.53;;;;;;;;;;5034515;28;20169;-85
2021/06/11 13:04:15;;;;;;;3.53;3.25;;;;;;;;;;5034364;28;20539;-87
2021/06/11 13:06:41;;;;;;;3.50;3.30;;;;;;;;;;5034683;28;20168;-87
2021/06/11 13:09:09;;;;;;;2.60;2.50;;;;;;;;;;5016813;28;20531;-87
2021/06/11 13:11:38;;;;;;;2.92;2.72;;;;;;;;;;5033766;28;20319;-87
2021/06/11 13:14:03;;;;;;;2.67;2.47;;;;;;;;;;5033925;28;20207;-89
2021/06/11 13:16:29;;;;;;;4.57;3.30;;;;;;;;;;5034112;28;20488;-89
2021/06/11 13:18:54;;;;;;;3.25;3.00;;;;;;;;;;5034293;28;20169;-89
2021/06/11 13:21:19;;;;;;;3.22;3.03;;;;;;;;;;5051601;28;20171;-89
2021/06/11 13:23:45;;;;;;;3.17;3.08;;;;;;;;;;5036637;28;20578;-89
2021/06/11 13:26:11;;;;;;;3.78;3.55;;;;;;;;;;5053961;28;20168;-88
2021/06/11 13:28:36;;;;;;;4.00;3.70;;;;;;;;;;5053818;28;20168;-88
2021/06/11 13:31:01;;;;;;;3.80;3.50;;;;;;;;;;5053379;28;20583;-89
2021/06/11 13:33:27;;;;;;;3.97;3.60;;;;;;;;;;5035557;28;20619;-90
2021/06/11 13:35:52;;;;;;;6.38;5.60;;;;;;;;;;5035270;28;20330;-89
2021/06/11 13:38:18;;;;;;;5.35;4.63;;;;;;;;;;5052123;28;20226;-87
2021/06/11 13:40:43;;;;;;;4.35;4.05;;;;;;;;;;5053484;28;20171;-86
2021/06/11 13:43:09;;;;;;;7.82;6.30;;;;;;;;;;5053293;28;20174;-87
2021/06/11 13:45:34;;;;;;;5.20;4.70;;;;;;;;;;5053675;28;20199;-86
2021/06/11 13:48:00;;;;;;;6.25;5.70;;;;;;;;;;5035654;28;20171;-87
2021/06/11 13:50:26;;;;;;;7.50;6.80;;;;;;;;;;5053368;28;20692;-86
2021/06/11 13:52:52;;;;;;;6.75;5.35;;;;;;;;;;5053461;28;20160;-86
2021/06/11 13:55:18;;;;;;;6.53;4.32;;;;;;;;;;5053555;28;20236;-87
2021/06/11 13:57:43;;;;;;;4.78;4.40;;;;;;;;;;5053306;28;20223;-87
2021/06/11 14:00:12;;;;;;;4.43;4.13;;;;;;;;;;5053585;28;20179;-86
2021/06/11 14:02:37;;;;;;;5.00;3.90;;;;;;;;;;5053323;28;20171;-85
2021/06/11 14:05:03;;;;;;;6.28;4.35;;;;;;;;;;5035572;28;20179;-86
2021/06/11 14:07:29;;;;;;;4.68;4.30;;;;;;;;;;5053279;28;20171;-87
2021/06/11 14:09:54;;;;;;;6.00;5.57;;;;;;;;;;5053806;28;20176;-85
2021/06/11 14:12:19;;;;;;;6.63;6.13;;;;;;;;;;5053038;28;20751;-86
2021/06/11 14:14:45;;;;;;;8.30;7.60;;;;;;;;;;5053887;28;20209;-86
2021/06/11 14:17:11;;;;;;;11.10;7.80;;;;;;;;;;5053583;28;20526;-88
2021/06/11 14:19:36;;;;;;;8.45;7.53;;;;;;;;;;5049784;28;20175;-87
2021/06/11 14:22:02;;;;;;;7.95;7.15;;;;;;;;;;5033526;28;20665;-88
2021/06/11 14:24:27;;;;;;;7.10;6.20;;;;;;;;;;5033662;28;20164;-87
2021/06/11 14:26:52;;;;;;;7.25;6.65;;;;;;;;;;5033874;28;20239;-88
2021/06/11 14:29:18;;;;;;;6.82;6.13;;;;;;;;;;5033354;28;20177;-88
2021/06/11 14:31:43;;;;;;;6.50;5.90;;;;;;;;;;5033068;28;20180;-88
2021/06/11 14:34:08;;;;;;;5.70;5.20;;;;;;;;;;5033109;28;20231;-88
2021/06/11 14:36:33;;;;;;;4.70;4.25;;;;;;;;;;5033002;28;20267;-88
2021/06/11 14:38:59;;;;;;;5.60;5.10;;;;;;;;;;5032853;28;20680;-86